Time;durP1;ratioP1;P1;durP2;ratioP2;P2;SDS_P1;SDS_P2;PMS_P1;PMS_P2;Temp;Humidity;BMP_temperature;BMP_pressure;BME280_temperature;BME280_humidity;BME280_pressure;Samples;Min_cycle;Max_cycle;Signal;HPM_P1;HPM_P2
2022/05/12 00:01:03;;;;;;;3.87;2.87;;;;;;;16.57;52.76;93915.19;5026202;28;20233;-69
2022/05/12 00:03:47;;;;;;;4.77;2.70;;;;;;;16.66;52.45;93918.44;5016899;28;20249;-69
2022/05/12 00:06:31;;;;;;;3.83;2.97;;;;;;;16.82;51.78;93919.94;5028121;28;20293;-69
2022/05/12 00:09:15;;;;;;;5.43;2.73;;;;;;;17.22;50.38;93920.41;5027190;28;20261;-69
2022/05/12 00:11:59;;;;;;;3.37;2.67;;;;;;;16.87;51.89;93915.22;5010638;28;20214;-69
2022/05/12 00:14:44;;;;;;;5.13;2.67;;;;;;;16.72;51.99;93921.56;5030564;28;20202;-69
2022/05/12 00:17:28;;;;;;;4.40;2.60;;;;;;;16.69;52.29;93911.50;5017063;28;20288;-68
2022/05/12 00:20:15;;;;;;;8.13;2.83;;;;;;;16.63;52.33;93914.03;5011899;28;20206;-69
2022/05/12 00:23:27;;;;;;;2.97;2.60;;;;;;;16.80;51.83;93899.31;5024637;28;20230;-69
2022/05/12 00:26:11;;;;;;;5.90;2.70;;;;;;;16.61;52.38;93906.19;5008601;28;20238;-69
2022/05/12 00:28:57;;;;;;;4.27;2.80;;;;;;;16.56;52.43;93908.06;5011613;28;20194;-69
2022/05/12 00:31:44;;;;;;;4.07;2.40;;;;;;;16.41;53.07;93914.41;5005949;28;20219;-69
2022/05/12 00:34:28;;;;;;;5.33;2.63;;;;;;;16.34;53.20;93909.81;5012554;28;20212;-69
2022/05/12 00:37:13;;;;;;;3.67;2.83;;;;;;;16.43;53.12;93906.00;5022631;28;20223;-69
2022/05/12 00:39:57;;;;;;;4.70;3.07;;;;;;;16.29;53.81;93910.25;5015466;28;20230;-69
2022/05/12 00:42:54;;;;;;;5.47;3.00;;;;;;;16.25;53.83;93910.75;5015882;28;20698;-69
2022/05/12 00:45:38;;;;;;;6.23;3.03;;;;;;;16.25;53.66;93910.75;5008902;28;20255;-69
2022/05/12 00:48:23;;;;;;;4.20;2.93;;;;;;;16.32;53.57;93912.53;5030207;28;20238;-69
2022/05/12 00:51:09;;;;;;;3.80;2.80;;;;;;;16.44;53.54;93927.25;5025504;28;20198;-69
2022/05/12 00:53:56;;;;;;;3.93;2.63;;;;;;;16.45;53.27;93928.00;5025567;28;20210;-69
2022/05/12 00:56:41;;;;;;;3.00;2.60;;;;;;;16.31;53.91;93925.19;5026917;28;20801;-69
2022/05/12 00:59:30;;;;;;;5.87;2.90;;;;;;;16.41;53.68;93917.22;5004005;28;20214;-66
2022/05/12 01:02:17;;;;;;;4.37;3.07;;;;;;;16.35;54.18;93914.09;5014410;28;20270;-67
2022/05/12 01:05:03;;;;;;;4.20;2.83;;;;;;;16.27;54.49;93919.34;5015003;28;20249;-67
2022/05/12 01:07:48;;;;;;;7.67;3.20;;;;;;;16.36;54.06;93921.19;5017896;28;20206;-67
2022/05/12 01:10:32;;;;;;;4.27;2.80;;;;;;;16.66;52.86;93907.13;5009509;28;20210;-67
2022/05/12 01:13:18;;;;;;;3.13;2.73;;;;;;;16.64;52.94;93913.41;5017725;28;20631;-66
2022/05/12 01:16:05;;;;;;;3.93;2.47;;;;;;;16.82;52.04;93919.22;5020954;28;20257;-67
2022/05/12 01:18:50;;;;;;;2.50;2.30;;;;;;;16.81;52.33;93914.91;4995467;28;20543;-67
2022/05/12 01:21:34;;;;;;;4.10;2.70;;;;;;;16.81;52.09;93920.56;5024070;28;20282;-67
2022/05/12 01:24:22;;;;;;;5.27;2.50;;;;;;;16.93;51.64;93924.00;5034688;28;20205;-67
2022/05/12 01:27:19;;;;;;;5.70;2.90;;;;;;;16.75;51.77;93925.94;5034802;28;20236;-67
2022/05/12 01:30:04;;;;;;;2.63;2.43;;;;;;;16.74;52.13;93921.66;5022724;28;20730;-67
2022/05/12 01:32:49;;;;;;;5.97;2.53;;;;;;;16.67;52.22;93925.53;5026186;28;20686;-67
2022/05/12 01:35:33;;;;;;;4.73;2.90;;;;;;;16.69;52.19;93923.56;5032776;28;20206;-67
2022/05/12 01:38:18;;;;;;;4.73;2.50;;;;;;;16.71;52.21;93925.75;5010268;28;20283;-67
2022/05/12 01:41:02;;;;;;;3.40;2.40;;;;;;;16.66;52.48;93926.94;5026049;28;20229;-67
2022/05/12 01:43:47;;;;;;;2.80;2.27;;;;;;;16.75;52.17;93931.59;5011813;28;20726;-67
2022/05/12 01:46:31;;;;;;;2.87;2.50;;;;;;;16.87;51.52;93930.09;5031329;28;20198;-67
2022/05/12 01:49:15;;;;;;;3.50;2.80;;;;;;;16.86;51.69;93930.72;5026482;28;20652;-67
2022/05/12 01:52:01;;;;;;;3.80;2.30;;;;;;;16.89;51.51;93924.53;5011102;28;20233;-67
2022/05/12 01:54:45;;;;;;;3.20;2.60;;;;;;;16.93;51.28;93929.66;5030796;28;20272;-67
2022/05/12 01:57:29;;;;;;;5.30;2.67;;;;;;;17.04;51.49;93933.69;5023895;28;20424;-68
2022/05/12 02:00:18;;;;;;;3.60;2.67;;;;;;;17.12;50.59;93940.47;5021255;28;20273;-68
2022/05/12 02:03:03;;;;;;;9.70;2.80;;;;;;;17.12;50.75;93940.47;5022348;28;20597;-68
2022/05/12 02:05:47;;;;;;;3.27;2.50;;;;;;;17.13;50.56;93936.28;5017081;28;20246;-68
2022/05/12 02:08:32;;;;;;;2.50;2.30;;;;;;;17.08;50.64;93931.78;5010499;28;20207;-68
2022/05/12 02:11:16;;;;;;;2.70;2.13;;;;;;;17.09;50.84;93941.75;5025178;28;20726;-68
2022/05/12 02:14:00;;;;;;;5.67;2.47;;;;;;;17.15;50.73;93944.16;5026084;28;20206;-68
2022/05/12 02:16:44;;;;;;;3.20;2.17;;;;;;;16.94;51.10;93946.00;5006617;28;20219;-68
2022/05/12 02:19:29;;;;;;;3.00;2.67;;;;;;;17.21;50.90;93948.00;4993507;28;20211;-68
2022/05/12 02:22:13;;;;;;;4.30;2.30;;;;;;;17.04;51.20;93951.41;5021117;28;20718;-68
2022/05/12 02:24:57;;;;;;;5.87;2.97;;;;;;;16.98;51.48;93953.94;5016966;28;20253;-66
2022/05/12 02:27:49;;;;;;;5.07;2.67;;;;;;;17.09;51.06;93953.09;5020030;28;20279;-68
2022/05/12 02:30:34;;;;;;;2.73;2.30;;;;;;;17.11;51.15;93958.09;5030455;28;20280;-68
2022/05/12 02:33:19;;;;;;;4.90;2.77;;;;;;;17.16;51.40;93960.47;5017950;28;20198;-68
2022/05/12 02:36:03;;;;;;;4.60;2.93;;;;;;;16.97;51.43;93952.50;5007291;28;20711;-68
2022/05/12 02:38:48;;;;;;;2.90;2.20;;;;;;;16.99;51.66;93961.06;5015399;28;20245;-67
2022/05/12 02:41:32;;;;;;;4.33;2.33;;;;;;;17.08;51.81;93968.59;5032369;28;20310;-67
2022/05/12 02:44:17;;;;;;;4.13;2.83;;;;;;;17.10;51.64;93960.19;5011898;28;20201;-67
2022/05/12 02:47:01;;;;;;;7.60;2.60;;;;;;;17.17;51.45;93970.44;5023167;28;20674;-67
2022/05/12 02:49:45;;;;;;;2.80;2.23;;;;;;;17.14;51.83;93974.56;5032273;28;20677;-68
2022/05/12 02:52:30;;;;;;;3.97;2.57;;;;;;;17.16;51.87;93962.56;5007042;28;20265;-68
2022/05/12 02:55:14;;;;;;;7.37;2.57;;;;;;;17.12;51.93;93968.78;5028803;28;20261;-68
2022/05/12 02:57:58;;;;;;;6.10;2.20;;;;;;;17.08;51.88;93967.88;5024818;28;20723;-67
2022/05/12 03:04:49;;;;;;;4.07;2.43;;;;;;;16.87;52.58;93969.72;5019793;28;20757;-67
2022/05/12 03:07:33;;;;;;;6.10;2.80;;;;;;;16.90;52.39;93964.91;5031322;28;20330;-67
2022/05/12 03:10:17;;;;;;;2.97;2.63;;;;;;;16.83;52.87;93971.63;5009661;28;20735;-67
2022/05/12 03:13:03;;;;;;;2.83;2.53;;;;;;;16.97;52.29;93966.66;5013208;28;20203;-68
2022/05/12 03:15:47;;;;;;;2.93;2.40;;;;;;;16.86;52.65;93976.00;5030132;28;20350;-68
2022/05/12 03:18:32;;;;;;;7.50;2.67;;;;;;;16.93;52.47;93974.94;5004444;28;20198;-67
2022/05/12 03:21:17;;;;;;;6.83;2.40;;;;;;;17.07;52.29;93967.13;5010734;28;20206;-67
2022/05/12 03:24:01;;;;;;;4.47;2.80;;;;;;;16.94;52.76;93976.41;5030997;28;20198;-68
2022/05/12 03:26:47;;;;;;;4.93;2.37;;;;;;;16.90;52.72;93984.72;5012550;28;20238;-67
2022/05/12 03:29:31;;;;;;;3.27;2.50;;;;;;;16.76;53.47;93984.00;5025445;28;20233;-68
2022/05/12 03:32:15;;;;;;;3.27;2.50;;;;;;;16.88;52.87;93990.25;4998734;28;20722;-67
2022/05/12 03:34:59;;;;;;;3.47;2.40;;;;;;;16.90;53.18;93998.88;5009599;28;20201;-68
2022/05/12 03:37:44;;;;;;;4.63;2.97;;;;;;;16.70;53.50;93992.94;5001258;28;20222;-68
2022/05/12 03:40:28;;;;;;;6.77;2.97;;;;;;;16.63;54.24;93998.91;5012783;28;20338;-67
2022/05/12 03:44:46;;;;;;;4.13;2.67;;;;;;;16.62;54.39;94003.09;5029961;28;20217;-68
2022/05/12 03:46:17;;;;;;;3.73;2.53;;;;;;;16.51;54.50;94002.56;5025161;28;20202;-68
2022/05/12 03:49:01;;;;;;;3.83;2.93;;;;;;;16.44;54.70;94009.28;5024378;28;20232;-68
2022/05/12 03:51:45;;;;;;;6.10;2.77;;;;;;;16.20;55.45;94016.53;5014144;28;20246;-68
2022/05/12 03:54:30;;;;;;;2.73;2.13;;;;;;;16.51;54.83;94022.38;5010281;28;20202;-68
2022/05/12 03:57:16;;;;;;;3.10;2.67;;;;;;;16.38;55.13;94025.94;5014171;28;20221;-68
2022/05/12 04:00:00;;;;;;;4.47;2.50;;;;;;;16.51;54.70;94028.03;4999008;28;20210;-68
2022/05/12 04:02:46;;;;;;;3.00;2.70;;;;;;;16.51;54.67;94033.69;5005230;28;20621;-68
2022/05/12 04:05:31;;;;;;;3.50;2.70;;;;;;;16.46;54.65;94036.94;5021543;28;20245;-69
2022/05/12 04:08:15;;;;;;;3.17;2.17;;;;;;;16.81;53.49;94036.59;5007046;28;20250;-68
2022/05/12 04:11:00;;;;;;;8.50;2.57;;;;;;;16.87;52.91;94034.06;5025604;28;20241;-69
2022/05/12 04:13:44;;;;;;;4.53;2.57;;;;;;;16.90;52.64;94044.16;5010132;28;20358;-68
2022/05/12 04:16:28;;;;;;;2.97;2.63;;;;;;;17.07;51.84;94046.41;5006187;28;20217;-68
2022/05/12 04:19:13;;;;;;;3.43;2.20;;;;;;;17.08;52.14;94042.22;5024758;28;20201;-68
2022/05/12 04:21:57;;;;;;;3.50;2.30;;;;;;;17.30;51.51;94046.13;5010986;28;20215;-68
2022/05/12 04:24:42;;;;;;;8.53;2.37;;;;;;;17.54;50.46;94051.47;5010192;28;20253;-68
2022/05/12 04:27:26;;;;;;;4.23;2.50;;;;;;;17.53;50.68;94061.38;5030814;28;20198;-68
2022/05/12 04:30:13;;;;;;;3.93;2.57;;;;;;;17.63;50.26;94059.03;5006243;28;20210;-68
2022/05/12 04:35:09;;;;;;;6.87;2.20;;;;;;;17.66;50.31;94069.06;5020864;28;20279;-68
2022/05/12 04:36:04;;;;;;;5.77;2.23;;;;;;;17.71;50.43;94065.09;5017888;28;20297;-68
2022/05/12 04:38:48;;;;;;;5.53;2.43;;;;;;;17.89;49.31;94063.09;5028392;28;20209;-68
2022/05/12 04:41:32;;;;;;;5.10;2.50;;;;;;;18.04;48.96;94072.97;4999882;28;20806;-68
2022/05/12 04:44:17;;;;;;;7.30;2.37;;;;;;;18.03;49.07;94077.91;5021362;28;20210;-68
2022/05/12 04:47:02;;;;;;;6.20;2.20;;;;;;;18.04;48.86;94072.97;5019862;28;20669;-68
2022/05/12 04:49:46;;;;;;;4.17;2.40;;;;;;;18.12;48.70;94074.09;5027340;28;20255;-69
2022/05/12 04:52:30;;;;;;;6.23;2.07;;;;;;;18.09;48.75;94069.69;5020617;28;20589;-69
2022/05/12 04:55:16;;;;;;;3.67;2.50;;;;;;;18.12;48.39;94068.41;5026203;28;20242;-69
2022/05/12 04:58:00;;;;;;;7.07;2.47;;;;;;;18.21;48.87;94074.47;5000163;28;20242;-69
2022/05/12 05:00:44;;;;;;;5.10;2.33;;;;;;;18.12;48.85;94085.44;5015029;28;20199;-67
2022/05/12 05:03:28;;;;;;;6.10;2.13;;;;;;;18.23;48.79;94100.06;5027921;28;20272;-68
2022/05/12 05:06:12;;;;;;;4.10;2.00;;;;;;;18.19;48.21;94095.69;5014207;28;20218;-69
2022/05/12 05:08:57;;;;;;;3.80;2.20;;;;;;;18.28;48.30;94104.53;5014547;28;20244;-66
2022/05/12 05:11:41;;;;;;;2.67;2.00;;;;;;;18.33;47.93;94103.38;5004495;28;20238;-66
2022/05/12 05:14:25;;;;;;;6.90;2.00;;;;;;;18.39;47.98;94103.66;5019187;28;20279;-69
2022/05/12 05:17:10;;;;;;;7.00;2.07;;;;;;;18.40;47.82;94113.59;5018824;28;20256;-69
2022/05/12 05:19:54;;;;;;;4.60;2.30;;;;;;;18.43;48.18;94118.00;5027683;28;20690;-69
2022/05/12 05:22:38;;;;;;;4.03;2.30;;;;;;;18.39;48.07;94123.50;5027680;28;20252;-69
2022/05/12 05:25:23;;;;;;;2.77;2.20;;;;;;;18.50;47.97;94131.09;4995442;28;20205;-68
2022/05/12 05:28:10;;;;;;;6.67;2.33;;;;;;;18.54;47.78;94128.44;5026306;28;20229;-68
2022/05/12 05:30:55;;;;;;;4.03;2.27;;;;;;;18.62;47.48;94140.19;5022012;28;20684;-69
2022/05/12 05:33:39;;;;;;;8.53;2.40;;;;;;;18.57;47.96;94144.22;5014955;28;20279;-69
2022/05/12 05:36:23;;;;;;;3.67;1.87;;;;;;;18.64;47.85;94145.22;4990134;28;20245;-69
2022/05/12 05:39:07;;;;;;;3.07;2.30;;;;;;;18.67;48.05;94147.50;5026937;28;20202;-69
2022/05/12 05:41:55;;;;;;;5.93;2.90;;;;;;;18.78;47.29;94157.19;5023199;28;20238;-69
2022/05/12 05:44:39;;;;;;;4.40;1.90;;;;;;;19.09;46.18;94162.84;5024173;28;20620;-69
2022/05/12 05:47:24;;;;;;;3.77;2.20;;;;;;;19.25;45.63;94157.13;5010287;28;20226;-68
2022/05/12 05:50:08;;;;;;;5.40;2.13;;;;;;;19.28;45.78;94167.94;5005171;28;20207;-69
2022/05/12 05:55:59;;;;;;;8.03;2.10;;;;;;;19.36;45.52;94168.28;5032933;28;20292;-69
2022/05/12 05:58:45;;;;;;;4.03;1.90;;;;;;;19.45;44.29;94174.28;5023565;28;20286;-69
2022/05/12 06:01:30;;;;;;;5.23;2.23;;;;;;;19.53;44.93;94177.50;5009417;28;20206;-69
2022/05/12 06:04:13;;;;;;;3.80;1.80;;;;;;;19.40;44.97;94184.75;5012523;28;20201;-69
2022/05/12 06:06:57;;;;;;;7.30;1.90;;;;;;;19.26;45.13;94187.00;5021780;28;20233;-69
2022/05/12 06:09:42;;;;;;;5.17;2.17;;;;;;;19.43;45.30;94188.44;4997223;28;20203;-69
2022/05/12 06:12:26;;;;;;;8.67;2.00;;;;;;;19.32;45.47;94195.78;5011983;28;20203;-69
2022/05/12 06:15:13;;;;;;;3.57;2.13;;;;;;;19.47;44.84;94195.03;5031251;28;20253;-69
2022/05/12 06:17:57;;;;;;;2.60;1.80;;;;;;;19.59;44.86;94201.25;5013130;28;20218;-69
2022/05/12 06:20:43;;;;;;;4.57;1.97;;;;;;;19.65;45.19;94198.66;5031861;28;20197;-69
2022/05/12 06:23:27;;;;;;;8.63;2.07;;;;;;;20.20;43.99;94200.88;5032549;28;20721;-69
2022/05/12 06:26:14;;;;;;;2.60;2.23;;;;;;;20.21;43.89;94199.50;5024154;28;20319;-69
2022/05/12 06:28:58;;;;;;;5.77;1.80;;;;;;;20.45;43.09;94206.19;5024138;28;20202;-69
2022/05/12 06:31:42;;;;;;;6.37;1.90;;;;;;;20.85;42.80;94206.28;5031177;28;20296;-69
2022/05/12 06:34:26;;;;;;;2.93;2.07;;;;;;;20.37;42.74;94203.00;5015145;28;20297;-69
2022/05/12 06:37:10;;;;;;;5.87;2.13;;;;;;;21.19;41.74;94209.66;5011679;28;20230;-69
2022/05/12 06:39:54;;;;;;;5.93;1.80;;;;;;;21.56;40.26;94215.28;5007250;28;20305;-69
2022/05/12 06:42:41;;;;;;;5.10;2.10;;;;;;;21.59;40.14;94222.53;5026912;28;20286;-69
2022/05/12 06:45:25;;;;;;;7.10;1.80;;;;;;;21.17;41.82;94212.47;5027785;28;20233;-69
2022/05/12 06:48:09;;;;;;;2.33;1.67;;;;;;;21.26;41.81;94214.94;5010703;28;20279;-69
2022/05/12 06:50:54;;;;;;;6.03;1.80;;;;;;;21.27;42.01;94216.41;5008859;28;20203;-69
2022/05/12 06:53:39;;;;;;;5.43;2.30;;;;;;;21.29;42.14;94222.16;5031475;28;20257;-69
2022/05/12 06:56:23;;;;;;;5.60;1.70;;;;;;;21.11;42.41;94227.16;5029672;28;20254;-69
2022/05/12 06:59:08;;;;;;;7.23;2.20;;;;;;;20.57;43.32;94223.72;5027137;28;20253;-69
2022/05/12 07:01:52;;;;;;;6.13;2.17;;;;;;;20.89;43.31;94223.50;5031509;28;20238;-69
2022/05/12 07:04:37;;;;;;;2.73;1.83;;;;;;;21.14;43.08;94231.56;5026733;28;20194;-69
2022/05/12 07:07:21;;;;;;;4.43;2.03;;;;;;;21.69;41.75;94234.28;5016602;28;20193;-69
2022/05/12 07:10:05;;;;;;;3.00;1.60;;;;;;;21.82;42.12;94238.28;5015460;28;20217;-69
2022/05/12 07:12:50;;;;;;;8.27;1.92;;;;;;;22.29;41.64;94237.00;5030481;28;20230;-69
2022/05/12 07:15:34;;;;;;;4.93;1.92;;;;;;;22.74;40.31;94242.75;5029936;28;20249;-69
2022/05/12 07:18:19;;;;;;;5.38;2.50;;;;;;;22.28;41.52;94246.97;5019802;28;20252;-69
2022/05/12 07:27:11;;;;;;;2.58;1.83;;;;;;;22.15;41.69;94232.31;5021938;28;20679;-69
2022/05/12 07:29:55;;;;;;;4.18;2.25;;;;;;;22.50;40.59;94239.13;5030505;28;20193;-69
2022/05/12 07:32:39;;;;;;;3.20;1.65;;;;;;;22.18;42.55;94236.69;5027389;28;20237;-69
2022/05/12 07:35:23;;;;;;;2.67;1.63;;;;;;;22.38;40.43;94233.03;5024686;28;20256;-69
2022/05/12 07:38:08;;;;;;;3.10;2.00;;;;;;;21.86;41.90;94235.56;5024408;28;20586;-69
2022/05/12 07:40:53;;;;;;;4.82;1.88;;;;;;;22.44;40.92;94236.81;5026142;28;20230;-70
2022/05/12 07:43:38;;;;;;;4.22;1.83;;;;;;;22.74;40.85;94245.63;5025640;28;20565;-69
2022/05/12 07:46:27;;;;;;;3.90;2.30;;;;;;;23.49;39.90;94244.25;5014316;28;20198;-69
2022/05/12 07:49:11;;;;;;;5.13;1.75;;;;;;;24.05;38.09;94236.47;5028142;28;20210;-70
2022/05/12 07:51:55;;;;;;;5.85;2.08;;;;;;;24.97;36.76;94234.44;5021409;28;20241;-69
2022/05/12 07:54:39;;;;;;;4.13;2.08;;;;;;;25.04;37.89;94253.25;5028387;28;20206;-70
2022/05/12 07:57:23;;;;;;;2.95;1.63;;;;;;;25.13;37.05;94240.53;5009454;28;20350;-70
2022/05/12 08:00:08;;;;;;;3.75;2.45;;;;;;;24.95;37.37;94246.59;5022843;28;20565;-70
2022/05/12 08:02:56;;;;;;;6.40;2.05;;;;;;;24.79;37.69;94248.34;5016751;28;20210;-70
2022/05/12 08:05:40;;;;;;;3.38;1.90;;;;;;;23.39;39.75;94242.53;5007452;28;20260;-70
2022/05/12 08:08:25;;;;;;;3.85;2.13;;;;;;;23.38;39.56;94257.53;5016334;28;20683;-70
2022/05/12 08:11:10;;;;;;;3.05;2.00;;;;;;;23.75;39.35;94265.75;5020738;28;20758;-69
2022/05/12 08:13:56;;;;;;;5.80;2.38;;;;;;;23.03;40.74;94252.91;4994612;28;20198;-68
2022/05/12 08:16:40;;;;;;;8.20;2.17;;;;;;;23.07;40.08;94258.03;5030337;28;20623;-70
2022/05/12 08:19:24;;;;;;;7.75;2.40;;;;;;;23.31;39.98;94253.03;5029633;28;20260;-69
2022/05/12 08:22:09;;;;;;;3.30;2.03;;;;;;;23.02;39.94;94245.03;5017474;28;20229;-70
2022/05/12 08:24:53;;;;;;;5.38;2.42;;;;;;;23.56;39.15;94255.22;5017938;28;20201;-68
2022/05/12 08:27:38;;;;;;;5.03;1.98;;;;;;;24.47;37.81;94265.47;5029992;28;20529;-70
2022/05/12 08:30:22;;;;;;;7.57;2.20;;;;;;;23.13;38.15;94255.34;5023004;28;20333;-70
2022/05/12 08:33:06;;;;;;;5.45;1.95;;;;;;;23.54;37.74;94269.44;5003777;28;20234;-70
2022/05/12 08:35:50;;;;;;;6.97;2.00;;;;;;;23.61;37.26;94256.78;5022914;28;20205;-69
2022/05/12 08:38:38;;;;;;;6.43;1.77;;;;;;;23.69;37.61;94254.16;5025456;28;20210;-70
2022/05/12 08:41:33;;;;;;;5.07;1.80;;;;;;;24.24;36.64;94272.78;5007862;28;20254;-70
2022/05/12 08:44:20;;;;;;;6.32;2.03;;;;;;;24.51;35.75;94263.44;5018424;28;20194;-70
2022/05/12 08:47:09;;;;;;;2.97;1.73;;;;;;;25.04;35.85;94267.59;5004278;28;20279;-70
2022/05/12 08:49:55;;;;;;;4.65;1.80;;;;;;;24.33;35.96;94254.41;5010097;28;20246;-70
2022/05/12 08:52:48;;;;;;;6.68;1.85;;;;;;;24.46;36.88;94270.47;5025937;28;20205;-70
2022/05/12 08:55:54;;;;;;;3.80;1.80;;;;;;;24.82;35.20;94259.16;5011294;28;20203;-70
2022/05/12 08:58:41;;;;;;;6.35;2.50;;;;;;;24.87;35.42;94254.97;5027678;28;20229;-70
2022/05/12 09:01:25;;;;;;;4.05;1.67;;;;;;;25.54;33.90;94244.25;5020200;28;20241;-70
2022/05/12 09:04:32;;;;;;;4.50;1.80;;;;;;;26.69;32.25;94251.41;5026778;28;20324;-70
2022/05/12 09:07:27;;;;;;;7.05;1.73;;;;;;;24.99;35.63;94260.31;5021227;28;20742;-70
2022/05/12 09:10:30;;;;;;;6.57;2.08;;;;;;;25.53;34.64;94260.00;5011312;28;20265;-70
2022/05/12 09:13:20;;;;;;;4.50;1.73;;;;;;;25.82;34.13;94255.59;5025142;28;20209;-70
2022/05/12 09:16:22;;;;;;;3.72;2.28;;;;;;;25.75;34.16;94249.00;5027323;28;20733;-69
2022/05/12 09:19:06;;;;;;;5.30;2.00;;;;;;;26.45;32.98;94263.22;5023500;28;20201;-69
2022/05/12 09:21:51;;;;;;;3.38;1.80;;;;;;;26.45;33.03;94268.97;5021641;28;20211;-70
2022/05/12 09:24:35;;;;;;;5.18;1.85;;;;;;;26.86;31.84;94248.06;5005103;28;20698;-69
2022/05/12 09:27:28;;;;;;;4.05;2.00;;;;;;;28.06;31.37;94264.09;5033219;28;20214;-70
2022/05/12 09:30:13;;;;;;;5.75;2.08;;;;;;;27.21;31.61;94271.63;5017258;28;20619;-70
2022/05/12 09:32:59;;;;;;;3.78;2.08;;;;;;;26.07;33.86;94257.50;5027019;28;20206;-70
2022/05/12 09:35:53;;;;;;;6.03;2.08;;;;;;;26.02;33.41;94271.06;5025297;28;20239;-70
2022/05/12 09:38:44;;;;;;;2.10;1.70;;;;;;;26.18;33.16;94265.59;5032795;28;20245;-69
2022/05/12 09:41:41;;;;;;;2.50;1.50;;;;;;;27.19;32.51;94263.69;5008182;28;20726;-69
2022/05/12 09:44:28;;;;;;;2.22;1.60;;;;;;;27.17;31.49;94251.44;5033388;28;20325;-70
2022/05/12 09:47:17;;;;;;;3.78;1.92;;;;;;;26.45;32.14;94268.97;5020382;28;20211;-70
2022/05/12 09:50:25;;;;;;;3.42;1.80;;;;;;;27.24;31.17;94259.44;5023535;28;20202;-70
2022/05/12 09:53:10;;;;;;;6.00;1.67;;;;;;;27.48;31.17;94261.94;5020453;28;20198;-69
2022/05/12 09:56:05;;;;;;;8.00;1.90;;;;;;;27.20;31.92;94267.31;5033328;28;20210;-70
2022/05/12 09:59:16;;;;;;;3.20;1.90;;;;;;;27.63;30.82;94254.97;5025319;28;20194;-69
2022/05/12 10:02:04;;;;;;;3.38;1.98;;;;;;;27.67;31.21;94266.50;5002423;28;20221;-69
2022/05/12 10:08:03;;;;;;;3.45;1.80;;;;;;;27.32;31.08;94273.97;5015854;28;20194;-69
2022/05/12 10:10:53;;;;;;;4.50;1.70;;;;;;;27.35;31.28;94261.03;5031764;28;20565;-70
2022/05/12 10:13:50;;;;;;;5.82;1.95;;;;;;;27.64;30.92;94281.59;5024743;28;20278;-69
2022/05/12 10:16:34;;;;;;;3.80;1.80;;;;;;;27.28;31.92;94268.13;5023435;28;20261;-69
2022/05/12 10:19:22;;;;;;;7.40;2.25;;;;;;;28.32;29.92;94270.16;5029270;28;20222;-69
2022/05/12 10:22:09;;;;;;;4.75;1.67;;;;;;;28.28;30.54;94255.69;5010406;28;20586;-69
2022/05/12 10:25:07;;;;;;;3.65;1.92;;;;;;;29.09;29.54;94267.94;4997402;28;20199;-67
2022/05/12 10:28:00;;;;;;;7.03;1.60;;;;;;;29.33;29.55;94273.88;5024837;28;20202;-67
2022/05/12 10:31:02;;;;;;;5.25;1.73;;;;;;;29.44;29.17;94276.84;4997199;28;20207;-68
2022/05/12 10:34:24;;;;;;;5.68;1.50;;;;;;;29.19;28.74;94265.13;5020519;28;20202;-67
2022/05/12 10:37:34;;;;;;;4.93;1.60;;;;;;;29.02;29.09;94263.53;5020999;28;20865;-69
2022/05/12 10:40:31;;;;;;;7.20;2.10;;;;;;;28.41;29.37;94263.03;5027959;28;20214;-67
2022/05/12 10:43:31;;;;;;;4.60;1.80;;;;;;;28.48;29.56;94255.88;5017456;28;20229;-67
2022/05/12 10:46:31;;;;;;;5.53;1.60;;;;;;;28.30;28.62;94264.38;5028417;28;20584;-67
2022/05/12 10:49:33;;;;;;;3.92;1.60;;;;;;;27.84;29.77;94255.19;5030128;28;20234;-67
2022/05/12 10:52:34;;;;;;;3.08;1.70;;;;;;;28.42;28.86;94258.72;5025247;28;20771;-67
2022/05/12 10:56:08;;;;;;;1.73;1.40;;;;;;;28.74;28.77;94252.53;5030716;28;20707;-68
2022/05/12 10:59:13;;;;;;;5.32;1.95;;;;;;;29.59;27.71;94246.59;5024675;28;20218;-68
2022/05/12 11:02:08;;;;;;;7.03;2.28;;;;;;;29.92;28.22;94251.09;5010235;28;20256;-69
2022/05/12 11:05:31;;;;;;;4.50;2.00;;;;;;;29.54;28.10;94250.91;5019752;28;20287;-68
2022/05/12 11:08:24;;;;;;;5.88;1.90;;;;;;;28.89;29.19;94244.69;5016516;28;20660;-69
2022/05/12 11:11:12;;;;;;;3.88;1.38;;;;;;;29.60;29.17;94245.88;5007910;28;20284;-69
2022/05/12 11:14:36;;;;;;;6.57;1.70;;;;;;;31.08;27.32;94228.09;5017029;28;20203;-69
2022/05/12 11:18:10;;;;;;;3.75;2.00;;;;;;;29.31;27.75;94247.88;5025779;28;20261;-69
2022/05/12 11:21:19;;;;;;;3.40;2.00;;;;;;;30.65;27.28;94231.00;5015022;28;20646;-68
2022/05/12 11:24:19;;;;;;;2.75;1.98;;;;;;;32.01;26.48;94234.34;5029373;28;20202;-69
2022/05/12 11:27:28;;;;;;;5.95;2.38;;;;;;;31.70;25.92;94225.06;5024313;28;20203;-69
2022/05/12 11:30:21;;;;;;;7.70;1.92;;;;;;;32.84;25.23;94221.50;5021960;28;20237;-69
2022/05/12 11:33:20;;;;;;;5.28;2.15;;;;;;;31.08;25.94;94216.53;5023843;28;20203;-69
2022/05/12 11:36:07;;;;;;;3.80;2.03;;;;;;;29.79;27.98;94237.28;5021132;28;20259;-69
2022/05/12 11:38:53;;;;;;;3.55;1.67;;;;;;;30.92;26.29;94217.97;5025915;28;20206;-70
2022/05/12 11:41:40;;;;;;;4.53;1.90;;;;;;;31.49;26.05;94220.75;5023886;28;20238;-69
2022/05/12 11:44:29;;;;;;;4.50;2.13;;;;;;;31.52;25.71;94225.13;5015824;28;20302;-69
2022/05/12 11:47:31;;;;;;;6.00;1.98;;;;;;;32.03;25.26;94224.94;5031325;28;20747;-69
2022/05/12 11:50:26;;;;;;;4.82;1.70;;;;;;;33.27;23.56;94231.28;5023530;28;20226;-68
2022/05/12 11:53:19;;;;;;;2.35;1.80;;;;;;;32.37;25.12;94221.13;5010663;28;20210;-68
2022/05/12 11:56:10;;;;;;;6.18;1.83;;;;;;;30.55;26.61;94228.81;5023082;28;20420;-68
2022/05/12 11:59:33;;;;;;;5.13;2.08;;;;;;;32.97;24.71;94219.94;5012638;28;20250;-67
2022/05/12 12:02:33;;;;;;;3.50;2.08;;;;;;;32.34;24.69;94217.50;4993337;28;20238;-68
2022/05/12 12:05:20;;;;;;;4.85;1.83;;;;;;;32.69;24.99;94214.38;5018768;28;20202;-68
2022/05/12 12:08:09;;;;;;;9.20;1.80;;;;;;;33.86;23.18;94212.50;4982271;28;20194;-68
2022/05/12 12:11:14;;;;;;;3.05;1.67;;;;;;;32.11;24.95;94205.28;5029066;28;20252;-68
2022/05/12 12:14:01;;;;;;;9.68;1.98;;;;;;;30.78;25.97;94208.59;5017707;28;20205;-68
2022/05/12 12:17:07;;;;;;;3.83;1.90;;;;;;;34.13;22.68;94193.94;5029469;28;20225;-67
2022/05/12 12:19:57;;;;;;;3.70;2.08;;;;;;;32.62;23.96;94204.25;5010884;28;20686;-68
2022/05/12 12:22:46;;;;;;;3.03;1.75;;;;;;;32.62;24.47;94192.66;5018779;28;20294;-68
2022/05/12 12:25:40;;;;;;;5.95;1.73;;;;;;;32.08;24.63;94188.66;5010217;28;20722;-68
2022/05/12 12:28:56;;;;;;;7.15;1.90;;;;;;;32.75;23.70;94194.03;5013247;28;20234;-68
2022/05/12 12:31:47;;;;;;;3.50;2.15;;;;;;;33.57;22.81;94200.47;5021050;28;20207;-68
2022/05/12 12:34:52;;;;;;;6.32;1.83;;;;;;;32.54;23.03;94185.44;5025678;28;20266;-68
2022/05/12 12:37:47;;;;;;;2.33;1.40;;;;;;;32.48;23.20;94181.88;5004821;28;20249;-67
2022/05/12 12:40:31;;;;;;;3.70;1.90;;;;;;;32.11;23.95;94172.69;5029207;28;20265;-68
2022/05/12 12:43:33;;;;;;;5.00;1.83;;;;;;;32.40;23.84;94168.16;5025265;28;20341;-68
2022/05/12 12:46:53;;;;;;;5.20;1.90;;;;;;;31.56;24.25;94169.31;5004887;28;20325;-69
2022/05/12 12:49:51;;;;;;;3.53;1.83;;;;;;;31.36;24.92;94167.22;4974287;28;20890;-69
2022/05/12 12:52:41;;;;;;;8.00;2.33;;;;;;;34.13;21.30;94163.44;5005511;28;20210;-67
2022/05/12 12:58:47;;;;;;;6.13;1.98;;;;;;;32.62;22.96;94161.44;5018774;28;20210;-67
2022/05/12 13:01:59;;;;;;;5.05;2.03;;;;;;;33.36;22.44;94170.94;5020738;28;20202;-68
2022/05/12 13:04:54;;;;;;;4.40;1.83;;;;;;;32.77;23.17;94162.81;5004351;28;20221;-68
2022/05/12 13:07:41;;;;;;;3.75;1.55;;;;;;;32.57;23.00;94157.16;5020796;28;20210;-67
2022/05/12 13:10:26;;;;;;;3.53;1.52;;;;;;;33.22;22.40;94174.72;5028559;28;20686;-68
2022/05/12 13:13:11;;;;;;;2.47;1.50;;;;;;;32.85;22.45;94156.19;5024801;28;20245;-68
2022/05/12 13:15:59;;;;;;;2.72;1.60;;;;;;;33.39;22.90;94151.31;5022005;28;20626;-68
2022/05/12 13:18:50;;;;;;;3.58;2.10;;;;;;;32.60;22.54;94154.94;5023561;28;20293;-68
2022/05/12 13:21:42;;;;;;;6.00;1.80;;;;;;;33.14;22.55;94148.63;5009165;28;20207;-68
2022/05/12 13:24:27;;;;;;;3.00;1.80;;;;;;;32.96;23.00;94172.03;5002121;28;20293;-68
2022/05/12 13:27:16;;;;;;;5.07;1.83;;;;;;;32.46;23.16;94147.81;5002897;28;20246;-68
2022/05/12 13:30:02;;;;;;;4.30;1.98;;;;;;;33.52;22.53;94141.66;5019184;28;20701;-69
2022/05/12 13:32:49;;;;;;;3.53;1.83;;;;;;;31.52;23.51;94149.78;5022710;28;20292;-68
2022/05/12 13:35:34;;;;;;;7.43;2.10;;;;;;;33.03;22.72;94146.56;5003936;28;20218;-68